createdAt,value
2022-11-03T00:01:32.508Z,17.83
2022-11-03T00:03:59.866Z,20.27
2022-11-03T00:06:26.854Z,16.87
2022-11-03T00:08:53.716Z,15.00
2022-11-03T00:11:20.562Z,16.27
2022-11-03T00:13:47.406Z,18.93
2022-11-03T00:16:14.343Z,16.17
2022-11-03T00:18:41.284Z,19.77
2022-11-03T00:21:10.738Z,11.20
2022-11-03T00:23:38.921Z,14.53
2022-11-03T00:26:08.114Z,12.77
2022-11-03T00:28:35.554Z,16.07
2022-11-03T00:31:06.929Z,15.37
2022-11-03T00:33:33.851Z,16.83
2022-11-03T00:36:01.318Z,15.30
2022-11-03T00:38:29.175Z,16.80
2022-11-03T00:40:56.134Z,15.37
2022-11-03T00:43:23.319Z,17.67
2022-11-03T00:45:50.347Z,12.47
2022-11-03T00:48:29.572Z,15.97
2022-11-03T00:51:00.703Z,15.53
2022-11-03T00:53:27.630Z,12.50
2022-11-03T00:55:54.936Z,13.90
2022-11-03T00:58:21.922Z,14.30
2022-11-03T01:00:48.602Z,11.40
2022-11-03T01:03:15.610Z,13.37
2022-11-03T01:06:00.968Z,11.93
2022-11-03T01:08:32.743Z,15.37
2022-11-03T01:11:24.430Z,12.83
2022-11-03T01:13:51.431Z,14.33
2022-11-03T01:16:18.337Z,12.10
2022-11-03T01:18:45.215Z,11.63
2022-11-03T01:21:12.141Z,14.03
2022-11-03T01:23:39.021Z,13.93
2022-11-03T01:26:07.469Z,15.20
2022-11-03T01:28:34.407Z,15.13
2022-11-03T01:31:03.928Z,15.10
2022-11-03T01:33:30.778Z,11.90
2022-11-03T01:35:57.741Z,15.07
2022-11-03T01:38:24.594Z,18.13
2022-11-03T01:40:51.530Z,13.03
2022-11-03T01:43:21.185Z,16.30
2022-11-03T01:45:50.604Z,12.73
2022-11-03T01:48:20.008Z,13.37
2022-11-03T01:50:48.481Z,19.10
2022-11-03T01:53:16.188Z,12.83
2022-11-03T01:55:43.248Z,9.97
2022-11-03T01:58:14.022Z,14.20
2022-11-03T02:00:44.517Z,13.63
2022-11-03T02:03:11.583Z,11.57
2022-11-03T02:05:39.937Z,14.27
2022-11-03T02:08:10.616Z,10.43
2022-11-03T02:10:38.324Z,12.97
2022-11-03T02:13:12.232Z,16.27
2022-11-03T02:15:39.358Z,16.67
2022-11-03T02:18:07.873Z,12.77
2022-11-03T02:20:35.064Z,9.50
2022-11-03T02:23:15.345Z,16.10
2022-11-03T02:25:44.459Z,13.13
2022-11-03T02:28:13.199Z,11.90
2022-11-03T02:30:44.373Z,14.43
2022-11-03T02:33:20.395Z,10.97
2022-11-03T02:35:51.337Z,13.80
2022-11-03T02:38:20.831Z,18.80
2022-11-03T02:40:52.695Z,14.47
2022-11-03T02:43:20.091Z,9.43
2022-11-03T02:45:48.854Z,12.90
2022-11-03T02:48:17.632Z,11.73
2022-11-03T02:50:44.648Z,15.17
2022-11-03T02:53:12.819Z,16.30
2022-11-03T02:55:45.093Z,16.43
2022-11-03T02:58:17.481Z,12.20
2022-11-03T03:00:49.654Z,14.33
2022-11-03T03:03:21.165Z,9.87
2022-11-03T03:05:49.761Z,11.00
2022-11-03T03:08:16.955Z,12.03
2022-11-03T03:10:46.332Z,12.90
2022-11-03T03:13:16.917Z,14.03
2022-11-03T03:15:47.088Z,12.47
2022-11-03T03:18:21.554Z,10.17
2022-11-03T03:20:55.170Z,19.03
2022-11-03T03:23:24.213Z,13.27
2022-11-03T03:25:55.266Z,12.63
2022-11-03T03:28:26.049Z,12.20
2022-11-03T03:30:55.510Z,15.27
2022-11-03T03:33:23.813Z,9.83
2022-11-03T03:35:52.460Z,17.37
2022-11-03T03:38:22.898Z,15.23
2022-11-03T03:40:53.549Z,12.87
2022-11-03T03:43:22.742Z,12.57
2022-11-03T03:45:54.506Z,18.33
2022-11-03T03:48:21.962Z,14.57
2022-11-03T03:50:50.202Z,13.70
2022-11-03T03:53:18.572Z,12.77
2022-11-03T03:55:49.011Z,16.57
2022-11-03T03:58:16.397Z,15.37
2022-11-03T04:00:43.765Z,12.47
2022-11-03T04:03:15.587Z,11.77
2022-11-03T04:05:42.525Z,13.60
2022-11-03T04:08:09.585Z,12.67
2022-11-03T04:10:36.675Z,13.50
2022-11-03T04:13:22.351Z,13.67
2022-11-03T04:16:07.756Z,11.47
2022-11-03T04:18:52.913Z,15.63
2022-11-03T04:21:38.117Z,13.10
2022-11-03T04:24:05.300Z,10.37
2022-11-03T04:26:31.829Z,17.77
2022-11-03T04:29:00.117Z,16.93
2022-11-03T04:31:28.498Z,10.87
2022-11-03T04:33:56.831Z,15.27
2022-11-03T04:36:25.153Z,10.73
2022-11-03T04:38:52.382Z,24.60
2022-11-03T04:41:22.497Z,14.53
2022-11-03T04:43:51.119Z,12.43
2022-11-03T04:46:23.576Z,13.10
2022-11-03T04:48:51.139Z,12.87
2022-11-03T04:51:22.375Z,17.53
2022-11-03T04:53:52.167Z,13.07
2022-11-03T04:56:22.091Z,18.57
2022-11-03T04:58:49.061Z,14.23
2022-11-03T05:01:23.687Z,10.70
2022-11-03T05:03:53.003Z,16.30
2022-11-03T05:06:22.506Z,14.93
2022-11-03T05:08:52.835Z,11.90
2022-11-03T05:11:24.404Z,13.70
2022-11-03T05:13:52.057Z,11.23
2022-11-03T05:16:19.208Z,12.80
2022-11-03T05:18:49.331Z,10.73
2022-11-03T05:21:18.439Z,17.00
2022-11-03T05:23:47.825Z,14.47
2022-11-03T05:26:18.105Z,11.57
2022-11-03T05:28:47.149Z,12.27
2022-11-03T05:31:23.837Z,15.03
2022-11-03T05:33:52.214Z,16.00
2022-11-03T05:36:21.994Z,15.27
2022-11-03T05:38:49.626Z,12.67
2022-11-03T05:41:21.612Z,15.47
2022-11-03T05:43:54.925Z,8.67
2022-11-03T05:46:21.925Z,10.70
2022-11-03T05:48:49.091Z,8.80
2022-11-03T05:51:20.811Z,12.60
2022-11-03T05:53:50.696Z,11.43
2022-11-03T05:56:19.916Z,7.73
2022-11-03T05:58:48.034Z,13.23
2022-11-03T06:01:19.322Z,13.33
2022-11-03T06:03:46.889Z,13.30
2022-11-03T06:06:18.246Z,13.93
2022-11-03T06:08:46.116Z,12.90
2022-11-03T06:11:22.641Z,16.33
2022-11-03T06:13:49.540Z,14.63
2022-11-03T06:16:35.140Z,12.43
2022-11-03T06:19:10.440Z,11.73
2022-11-03T06:21:41.824Z,13.50
2022-11-03T06:24:13.732Z,12.87
2022-11-03T06:26:42.124Z,12.33
2022-11-03T06:29:14.111Z,11.90
2022-11-03T06:31:41.015Z,8.83
2022-11-03T06:34:33.252Z,11.00
2022-11-03T06:37:13.531Z,13.33
2022-11-03T06:39:40.626Z,12.07
2022-11-03T06:42:13.271Z,14.10
2022-11-03T06:44:41.755Z,11.40
2022-11-03T06:47:19.921Z,13.43
2022-11-03T06:49:47.165Z,12.97
2022-11-03T06:52:28.578Z,11.03
2022-11-03T06:55:12.206Z,11.13
2022-11-03T06:57:45.862Z,12.03
2022-11-03T07:00:37.020Z,15.27
2022-11-03T07:03:10.069Z,17.80
2022-11-03T07:05:38.724Z,13.77
2022-11-03T07:08:20.465Z,9.77
2022-11-03T07:10:48.143Z,16.70
2022-11-03T07:13:19.760Z,13.40
2022-11-03T07:15:46.390Z,12.67
2022-11-03T07:18:19.583Z,14.57
2022-11-03T07:20:46.693Z,17.77
2022-11-03T07:23:18.711Z,11.97
2022-11-03T07:25:48.390Z,10.80
2022-11-03T07:28:15.683Z,10.47
2022-11-03T07:30:43.019Z,15.70
2022-11-03T07:33:13.504Z,13.07
2022-11-03T07:36:13.287Z,10.57
2022-11-03T07:38:29.475Z,16.00
2022-11-03T07:40:58.955Z,15.43
2022-11-03T07:43:31.232Z,13.63
2022-11-03T07:46:01.051Z,10.83
2022-11-03T07:48:33.300Z,8.60
2022-11-03T07:51:05.682Z,14.63
2022-11-03T07:53:36.643Z,12.23
2022-11-03T07:56:15.163Z,8.17
2022-11-03T07:58:46.458Z,11.17
2022-11-03T08:01:24.633Z,11.00
2022-11-03T08:03:52.789Z,11.70
2022-11-03T08:06:20.055Z,8.87
2022-11-03T08:08:47.208Z,11.10
2022-11-03T08:13:46.313Z,7.93
2022-11-03T08:16:13.441Z,7.43
2022-11-03T08:18:40.232Z,9.40
2022-11-03T08:21:06.867Z,9.03
2022-11-03T08:23:34.068Z,8.33
2022-11-03T08:26:00.920Z,9.03
2022-11-03T08:28:28.023Z,10.30
2022-11-03T08:31:02.312Z,9.53
2022-11-03T08:36:01.835Z,7.27
2022-11-03T08:38:28.770Z,9.27
2022-11-03T08:40:58.598Z,6.83
2022-11-03T08:43:25.575Z,5.93
2022-11-03T08:45:53.109Z,8.50
2022-11-03T08:48:21.027Z,7.13
2022-11-03T08:50:49.605Z,6.03
2022-11-03T08:53:16.320Z,8.77
2022-11-03T08:55:43.244Z,5.97
2022-11-03T08:58:10.086Z,7.83
2022-11-03T09:00:40.943Z,6.80
2022-11-03T09:03:08.437Z,7.33
2022-11-03T09:05:38.111Z,4.10
2022-11-03T09:10:52.167Z,11.20
2022-11-03T09:13:19.037Z,10.17
2022-11-03T09:15:45.886Z,10.07
2022-11-03T09:18:12.887Z,5.73
2022-11-03T09:20:41.309Z,7.40
2022-11-03T09:23:08.590Z,4.30
2022-11-03T09:25:35.602Z,7.77
2022-11-03T09:28:02.593Z,5.33
2022-11-03T09:30:29.486Z,5.67
2022-11-03T09:32:56.401Z,8.73
2022-11-03T09:35:23.090Z,6.73
2022-11-03T09:37:50.433Z,8.67
2022-11-03T09:40:17.598Z,6.60
2022-11-03T09:42:44.856Z,4.70
2022-11-03T09:45:11.932Z,4.20
2022-11-03T09:47:41.322Z,3.00
2022-11-03T09:50:13.251Z,3.40
2022-11-03T09:52:40.423Z,4.77
2022-11-03T09:55:14.429Z,3.63
2022-11-03T09:57:41.467Z,5.07
2022-11-03T10:00:16.144Z,4.10
2022-11-03T10:02:43.046Z,6.47
2022-11-03T10:05:13.310Z,7.93
2022-11-03T10:07:40.541Z,3.73
2022-11-03T10:10:16.525Z,4.27
2022-11-03T10:12:43.752Z,6.10
2022-11-03T10:15:16.666Z,4.13
2022-11-03T10:17:44.145Z,3.87
2022-11-03T10:20:12.114Z,6.67
2022-11-03T10:22:41.192Z,9.07
2022-11-03T10:25:35.601Z,7.30
2022-11-03T10:28:14.904Z,3.60
2022-11-03T10:33:41.131Z,5.00
2022-11-03T10:36:23.162Z,3.07
2022-11-03T10:38:50.057Z,9.53
2022-11-03T10:41:18.784Z,5.90
2022-11-03T10:43:58.992Z,6.53
2022-11-03T10:49:14.795Z,5.70
2022-11-03T10:51:42.539Z,6.57
2022-11-03T10:54:12.343Z,9.20
2022-11-03T10:56:39.807Z,6.17
2022-11-03T10:59:06.802Z,6.30
2022-11-03T11:01:33.819Z,6.10
2022-11-03T11:04:00.926Z,6.17
2022-11-03T11:06:29.371Z,8.50
2022-11-03T11:09:01.417Z,6.87
2022-11-03T11:11:28.693Z,6.03
2022-11-03T11:14:36.504Z,3.87
2022-11-03T11:17:04.442Z,3.77
2022-11-03T11:19:51.423Z,7.10
2022-11-03T11:22:22.822Z,6.27
2022-11-03T11:25:05.040Z,7.53
2022-11-03T11:28:10.869Z,6.33
2022-11-03T11:31:23.051Z,5.93
2022-11-03T11:33:50.358Z,6.47
2022-11-03T11:36:22.588Z,3.93
2022-11-03T11:39:11.036Z,6.57
2022-11-03T11:42:06.615Z,6.53
2022-11-03T11:44:54.096Z,6.03
2022-11-03T11:47:32.465Z,5.90
2022-11-03T11:50:30.991Z,9.17
2022-11-03T11:53:04.749Z,3.93
2022-11-03T11:55:38.094Z,5.83
2022-11-03T11:58:13.484Z,5.07
2022-11-03T12:00:52.017Z,5.60
2022-11-03T12:03:23.516Z,5.93
2022-11-03T12:05:50.845Z,5.37
2022-11-03T12:08:18.342Z,7.20
2022-11-03T12:10:52.974Z,10.07
2022-11-03T12:13:36.697Z,7.67
2022-11-03T12:16:03.594Z,6.63
2022-11-03T12:18:40.033Z,7.93
2022-11-03T12:21:10.894Z,8.40
2022-11-03T12:23:40.886Z,6.77
2022-11-03T12:26:15.418Z,8.50
2022-11-03T12:28:42.344Z,6.53
2022-11-03T12:31:09.297Z,4.43
2022-11-03T12:33:36.294Z,5.10
2022-11-03T12:36:05.365Z,7.43
2022-11-03T12:38:32.632Z,5.57
2022-11-03T12:41:20.348Z,4.70
2022-11-03T12:43:48.332Z,5.23
2022-11-03T12:46:15.908Z,5.70
2022-11-03T12:48:43.401Z,10.17
2022-11-03T12:51:11.811Z,4.13
2022-11-03T12:53:39.197Z,5.80
2022-11-03T12:56:06.388Z,8.83
2022-11-03T12:58:33.487Z,6.23
2022-11-03T13:01:01.704Z,5.33
2022-11-03T13:03:29.128Z,7.37
2022-11-03T13:05:56.006Z,5.07
2022-11-03T13:08:23.109Z,8.03
2022-11-03T13:10:50.379Z,11.60
2022-11-03T13:13:17.261Z,7.50
2022-11-03T13:15:44.126Z,7.20
2022-11-03T13:18:13.851Z,3.50
2022-11-03T13:20:42.465Z,7.17
2022-11-03T13:23:09.838Z,5.03
2022-11-03T13:25:37.218Z,6.10
2022-11-03T13:28:04.997Z,7.27
2022-11-03T13:30:35.799Z,8.97
2022-11-03T13:33:02.669Z,7.57
2022-11-03T13:35:29.738Z,5.77
2022-11-03T13:37:56.625Z,5.87
2022-11-03T13:41:39.175Z,5.40
2022-11-03T13:44:07.970Z,10.33
2022-11-03T13:46:34.964Z,7.97
2022-11-03T13:49:51.126Z,5.50
2022-11-03T13:51:48.999Z,5.53
2022-11-03T13:59:50.516Z,6.80
2022-11-03T14:05:07.090Z,4.97
2022-11-03T14:07:35.672Z,6.63
2022-11-03T14:10:04.070Z,5.67
2022-11-03T14:12:31.223Z,7.80
2022-11-03T14:14:58.715Z,4.90
2022-11-03T14:17:25.593Z,10.17
2022-11-03T14:19:54.610Z,5.27
2022-11-03T14:22:23.965Z,5.73
2022-11-03T14:24:51.577Z,6.50
2022-11-03T14:27:19.594Z,5.77
2022-11-03T14:29:48.903Z,6.20
2022-11-03T14:32:17.266Z,5.00
2022-11-03T14:34:44.335Z,5.93
2022-11-03T14:37:12.900Z,5.53
2022-11-03T14:39:40.309Z,4.67
2022-11-03T14:42:11.020Z,9.77
2022-11-03T14:44:39.000Z,7.77
2022-11-03T14:47:08.254Z,6.90
2022-11-03T14:49:35.935Z,5.73
2022-11-03T14:52:04.316Z,5.63
2022-11-03T14:54:31.586Z,7.23
2022-11-03T14:56:58.769Z,7.00
2022-11-03T14:59:25.640Z,10.40
2022-11-03T15:01:53.252Z,7.10
2022-11-03T15:04:20.508Z,6.20
2022-11-03T15:06:48.151Z,6.90
2022-11-03T15:09:15.460Z,6.20
2022-11-03T15:11:42.847Z,7.63
2022-11-03T15:14:10.106Z,7.10
2022-11-03T15:16:37.055Z,8.90
2022-11-03T15:19:03.968Z,9.87
2022-11-03T15:21:31.041Z,12.77
2022-11-03T15:26:45.172Z,7.67
2022-11-03T15:29:12.050Z,7.03
2022-11-03T15:31:39.302Z,7.67
2022-11-03T15:34:08.880Z,7.30
2022-11-03T15:36:35.981Z,11.83
2022-11-03T15:39:03.399Z,9.43
2022-11-03T15:41:29.957Z,10.03
2022-11-03T15:43:56.940Z,8.00
2022-11-03T15:46:23.852Z,6.57
2022-11-03T15:48:50.716Z,8.83
2022-11-03T15:51:17.569Z,7.93
2022-11-03T15:53:44.499Z,6.33
2022-11-03T15:56:11.785Z,7.37
2022-11-03T15:58:38.398Z,10.40
2022-11-03T16:01:05.472Z,5.80
2022-11-03T16:03:33.984Z,5.83
2022-11-03T16:06:00.931Z,7.87
2022-11-03T16:08:27.649Z,5.33
2022-11-03T16:10:57.902Z,9.90
2022-11-03T16:13:25.707Z,8.37
2022-11-03T16:15:53.641Z,7.90
2022-11-03T16:18:20.798Z,8.30
2022-11-03T16:20:47.713Z,6.33
2022-11-03T16:23:14.591Z,10.57
2022-11-03T16:25:41.489Z,6.97
2022-11-03T16:28:08.618Z,3.50
2022-11-03T16:30:38.061Z,5.23
2022-11-03T16:33:04.738Z,10.77
2022-11-03T16:35:31.359Z,13.53
2022-11-03T16:37:57.914Z,5.67
2022-11-03T16:40:24.861Z,7.30
2022-11-03T16:42:51.550Z,8.20
2022-11-03T16:45:19.820Z,4.73
2022-11-03T16:47:48.192Z,6.00
2022-11-03T16:50:16.116Z,8.33
2022-11-03T16:52:43.065Z,9.03
2022-11-03T16:55:11.076Z,12.40
2022-11-03T16:57:38.136Z,7.77
2022-11-03T17:00:06.407Z,7.10
2022-11-03T17:02:33.399Z,4.97
2022-11-03T17:05:00.743Z,6.23
2022-11-03T17:07:27.628Z,5.37
2022-11-03T17:09:54.545Z,5.87
2022-11-03T17:12:21.524Z,5.90
2022-11-03T17:14:51.261Z,6.87
2022-11-03T17:24:50.268Z,6.90
2022-11-03T17:27:21.089Z,6.10
2022-11-03T17:29:52.630Z,11.10
2022-11-03T17:32:24.217Z,5.70
2022-11-03T17:34:51.260Z,7.20
2022-11-03T17:37:18.323Z,5.93
2022-11-03T17:39:45.870Z,4.47
2022-11-03T17:42:16.458Z,7.00
2022-11-03T17:44:43.794Z,7.13
2022-11-03T17:47:10.714Z,5.90
2022-11-03T17:49:37.594Z,7.70
2022-11-03T17:52:04.303Z,4.73
2022-11-03T17:54:32.210Z,10.03
2022-11-03T17:57:01.082Z,9.67
2022-11-03T17:59:28.439Z,6.97
2022-11-03T18:01:55.449Z,7.33
2022-11-03T18:04:22.140Z,6.73
2022-11-03T18:06:48.807Z,8.57
2022-11-03T18:09:15.957Z,5.10
2022-11-03T18:12:01.531Z,7.23
2022-11-03T18:14:29.901Z,5.50
2022-11-03T18:16:57.736Z,6.00
2022-11-03T18:19:24.417Z,7.27
2022-11-03T18:21:51.362Z,7.63
2022-11-03T18:24:20.921Z,5.93
2022-11-03T18:26:47.925Z,7.90
2022-11-03T18:29:14.890Z,6.10
2022-11-03T18:31:46.480Z,8.20
2022-11-03T18:34:15.535Z,3.43
2022-11-03T18:36:42.761Z,7.37
2022-11-03T18:39:14.141Z,7.83
2022-11-03T18:41:43.197Z,6.63
2022-11-03T18:44:14.652Z,4.67
2022-11-03T18:46:41.284Z,6.53
2022-11-03T18:49:08.851Z,5.57
2022-11-03T18:51:35.718Z,7.83
2022-11-03T18:54:04.201Z,9.10
2022-11-03T18:56:34.200Z,7.47
2022-11-03T18:59:04.308Z,8.37
2022-11-03T19:01:31.363Z,5.57
2022-11-03T19:03:58.028Z,4.47
2022-11-03T19:06:25.440Z,9.87
2022-11-03T19:08:57.778Z,6.17
2022-11-03T19:11:24.716Z,4.43
2022-11-03T19:13:51.705Z,6.03
2022-11-03T19:16:21.046Z,6.50
2022-11-03T19:18:48.228Z,7.77
2022-11-03T19:21:16.698Z,4.17
2022-11-03T19:23:47.970Z,5.97
2022-11-03T19:26:20.112Z,5.10
2022-11-03T19:28:50.626Z,10.93
2022-11-03T19:31:22.820Z,10.17
2022-11-03T19:33:51.805Z,5.60
2022-11-03T19:36:19.176Z,5.27
2022-11-03T19:38:47.305Z,8.00
2022-11-03T19:41:34.673Z,7.43
2022-11-03T19:44:01.751Z,5.73
2022-11-03T19:46:28.957Z,6.97
2022-11-03T19:48:56.570Z,9.73
2022-11-03T19:51:24.014Z,8.43
2022-11-03T19:53:51.727Z,7.43
2022-11-03T19:56:18.823Z,6.07
2022-11-03T19:58:45.447Z,6.97
2022-11-03T20:01:12.469Z,7.13
2022-11-03T20:03:39.298Z,8.00
2022-11-03T20:06:07.553Z,5.47
2022-11-03T20:08:34.577Z,6.33
2022-11-03T20:11:01.901Z,7.00
2022-11-03T20:13:37.465Z,9.80
2022-11-03T20:16:10.167Z,8.37
2022-11-03T20:18:37.547Z,7.10
2022-11-03T20:21:04.538Z,7.20
2022-11-03T20:23:33.923Z,10.47
2022-11-03T20:26:02.025Z,8.70
2022-11-03T20:28:31.505Z,8.77
2022-11-03T20:31:00.304Z,8.43
2022-11-03T20:33:26.943Z,8.70
2022-11-03T20:35:54.527Z,6.90
2022-11-03T20:38:24.197Z,6.77
2022-11-03T20:40:57.592Z,10.37
2022-11-03T20:43:27.479Z,7.77
2022-11-03T20:45:54.412Z,10.00
2022-11-03T20:48:21.165Z,8.73
2022-11-03T20:50:48.100Z,9.53
2022-11-03T20:53:18.863Z,10.03
2022-11-03T20:55:45.839Z,10.73
2022-11-03T20:58:14.456Z,7.77
2022-11-03T21:00:43.193Z,11.10
2022-11-03T21:03:45.206Z,9.63
2022-11-03T21:06:05.463Z,7.77
2022-11-03T21:08:32.058Z,10.60
2022-11-03T21:11:22.433Z,12.80
2022-11-03T21:13:49.137Z,8.13
2022-11-03T21:16:34.574Z,7.03
2022-11-03T21:19:19.230Z,9.27
2022-11-03T21:21:45.865Z,14.87
2022-11-03T21:24:12.837Z,11.43
2022-11-03T21:26:41.160Z,7.27
2022-11-03T21:29:07.762Z,7.90
2022-11-03T21:31:34.980Z,8.07
2022-11-03T21:34:01.630Z,10.30
2022-11-03T21:36:28.281Z,10.47
2022-11-03T21:38:54.918Z,10.27
2022-11-03T21:41:39.688Z,12.53
2022-11-03T21:44:15.957Z,12.80
2022-11-03T21:46:43.929Z,8.27
2022-11-03T21:49:29.031Z,9.63
2022-11-03T21:51:55.906Z,9.00
2022-11-03T21:54:23.788Z,10.33
2022-11-03T21:56:53.505Z,11.20
2022-11-03T21:59:20.187Z,10.80
2022-11-03T22:01:48.633Z,11.07
2022-11-03T22:04:15.628Z,14.43
2022-11-03T22:06:42.229Z,15.60
2022-11-03T22:09:09.123Z,10.50
2022-11-03T22:11:36.033Z,15.80
2022-11-03T22:14:02.937Z,10.17
2022-11-03T22:16:43.273Z,12.37
2022-11-03T22:19:31.438Z,11.63
2022-11-03T22:22:16.505Z,10.17
2022-11-03T22:25:01.060Z,12.40
2022-11-03T22:27:28.992Z,10.10
2022-11-03T22:30:16.407Z,9.47
2022-11-03T22:32:43.469Z,10.40
2022-11-03T22:35:29.495Z,13.00
2022-11-03T22:38:04.777Z,8.87
2022-11-03T22:40:49.919Z,10.47
2022-11-03T22:43:35.122Z,10.90
2022-11-03T22:46:03.231Z,10.40
2022-11-03T22:48:31.156Z,11.60
2022-11-03T22:51:00.445Z,11.27
2022-11-03T22:53:45.673Z,12.63
2022-11-03T22:56:12.496Z,14.43
2022-11-03T22:58:39.449Z,9.63
2022-11-03T23:01:08.383Z,10.50
2022-11-03T23:03:37.303Z,11.73
2022-11-03T23:06:06.561Z,14.17
2022-11-03T23:08:35.017Z,9.20
2022-11-03T23:11:06.977Z,11.33
2022-11-03T23:13:33.846Z,15.50
2022-11-03T23:16:00.512Z,14.27
2022-11-03T23:18:45.863Z,11.53
2022-11-03T23:21:13.497Z,12.70
2022-11-03T23:23:58.241Z,12.13
2022-11-03T23:26:26.397Z,11.07
2022-11-03T23:28:53.124Z,12.13
2022-11-03T23:31:19.806Z,10.93
2022-11-03T23:33:46.431Z,9.13
2022-11-03T23:36:14.958Z,14.57
2022-11-03T23:38:41.967Z,13.03
2022-11-03T23:41:11.496Z,13.67
2022-11-03T23:43:38.682Z,12.77
2022-11-03T23:46:24.494Z,10.47
2022-11-03T23:48:52.198Z,13.43
2022-11-03T23:51:20.951Z,9.60
2022-11-03T23:53:47.966Z,13.73
2022-11-03T23:56:36.551Z,10.53
2022-11-03T23:59:04.195Z,11.73
